sensor_id;sensor_type;location;lat;lon;timestamp;temperature;humidity
20590;DHT22;10453;50.810;12.540;2023-10-31T00:01:20;12.30;99.90
20590;DHT22;10453;50.810;12.540;2023-10-31T00:05:41;12.30;99.90
20590;DHT22;10453;50.810;12.540;2023-10-31T00:09:58;12.40;99.90
20590;DHT22;10453;50.810;12.540;2023-10-31T00:14:16;12.30;99.90
20590;DHT22;10453;50.810;12.540;2023-10-31T00:18:47;12.40;99.90
20590;DHT22;10453;50.810;12.540;2023-10-31T00:23:05;12.40;99.90
20590;DHT22;10453;50.810;12.540;2023-10-31T00:27:23;12.40;99.90
20590;DHT22;10453;50.810;12.540;2023-10-31T00:31:40;12.40;99.90
20590;DHT22;10453;50.810;12.540;2023-10-31T00:35:58;12.40;99.90
20590;DHT22;10453;50.810;12.540;2023-10-31T00:40:16;12.30;99.90
20590;DHT22;10453;50.810;12.540;2023-10-31T00:44:35;12.40;99.90
20590;DHT22;10453;50.810;12.540;2023-10-31T00:48:52;12.20;99.90
20590;DHT22;10453;50.810;12.540;2023-10-31T00:53:09;12.40;99.90
20590;DHT22;10453;50.810;12.540;2023-10-31T00:57:27;12.40;99.90
20590;DHT22;10453;50.810;12.540;2023-10-31T01:01:45;12.30;99.90
20590;DHT22;10453;50.810;12.540;2023-10-31T01:06:03;12.40;99.90
20590;DHT22;10453;50.810;12.540;2023-10-31T01:10:21;12.40;99.90
20590;DHT22;10453;50.810;12.540;2023-10-31T01:14:38;12.40;99.90
20590;DHT22;10453;50.810;12.540;2023-10-31T01:18:56;12.40;99.90
20590;DHT22;10453;50.810;12.540;2023-10-31T01:23:13;12.50;99.90
20590;DHT22;10453;50.810;12.540;2023-10-31T01:27:31;12.40;99.90
20590;DHT22;10453;50.810;12.540;2023-10-31T01:31:48;12.40;99.90
20590;DHT22;10453;50.810;12.540;2023-10-31T01:36:17;12.40;99.90
20590;DHT22;10453;50.810;12.540;2023-10-31T01:40:35;12.30;99.90
20590;DHT22;10453;50.810;12.540;2023-10-31T01:44:53;12.30;99.90
20590;DHT22;10453;50.810;12.540;2023-10-31T01:49:10;12.30;99.90
20590;DHT22;10453;50.810;12.540;2023-10-31T01:53:28;12.40;99.90
20590;DHT22;10453;50.810;12.540;2023-10-31T01:57:47;12.40;99.90
20590;DHT22;10453;50.810;12.540;2023-10-31T02:02:05;12.40;99.90
20590;DHT22;10453;50.810;12.540;2023-10-31T02:06:23;12.40;99.90
20590;DHT22;10453;50.810;12.540;2023-10-31T02:10:41;12.40;99.90
20590;DHT22;10453;50.810;12.540;2023-10-31T02:14:58;12.40;99.90
20590;DHT22;10453;50.810;12.540;2023-10-31T02:19:19;12.40;99.90
20590;DHT22;10453;50.810;12.540;2023-10-31T02:23:37;12.40;99.90
20590;DHT22;10453;50.810;12.540;2023-10-31T02:27:55;12.40;99.90
20590;DHT22;10453;50.810;12.540;2023-10-31T02:32:13;12.40;99.90
20590;DHT22;10453;50.810;12.540;2023-10-31T02:36:31;12.40;99.90
20590;DHT22;10453;50.810;12.540;2023-10-31T02:40:48;12.40;99.90
20590;DHT22;10453;50.810;12.540;2023-10-31T02:45:06;12.40;99.90
20590;DHT22;10453;50.810;12.540;2023-10-31T02:49:24;12.40;99.90
20590;DHT22;10453;50.810;12.540;2023-10-31T02:53:41;12.30;99.90
20590;DHT22;10453;50.810;12.540;2023-10-31T02:57:59;12.40;99.90
20590;DHT22;10453;50.810;12.540;2023-10-31T03:02:17;12.50;99.90
20590;DHT22;10453;50.810;12.540;2023-10-31T03:06:34;12.50;99.90
20590;DHT22;10453;50.810;12.540;2023-10-31T03:10:52;12.50;99.90
20590;DHT22;10453;50.810;12.540;2023-10-31T03:15:10;12.40;99.90
20590;DHT22;10453;50.810;12.540;2023-10-31T03:19:27;12.40;99.90
20590;DHT22;10453;50.810;12.540;2023-10-31T03:23:49;12.50;99.90
20590;DHT22;10453;50.810;12.540;2023-10-31T03:28:18;12.50;99.90
20590;DHT22;10453;50.810;12.540;2023-10-31T03:32:36;12.40;99.90
20590;DHT22;10453;50.810;12.540;2023-10-31T03:36:53;12.40;99.90
20590;DHT22;10453;50.810;12.540;2023-10-31T03:41:11;12.40;99.90
20590;DHT22;10453;50.810;12.540;2023-10-31T03:45:29;12.40;99.90
20590;DHT22;10453;50.810;12.540;2023-10-31T03:49:46;12.40;99.90
20590;DHT22;10453;50.810;12.540;2023-10-31T03:54:04;12.40;99.90
20590;DHT22;10453;50.810;12.540;2023-10-31T03:58:22;12.40;99.90
20590;DHT22;10453;50.810;12.540;2023-10-31T04:02:40;12.50;99.90
20590;DHT22;10453;50.810;12.540;2023-10-31T04:06:58;12.50;99.90
20590;DHT22;10453;50.810;12.540;2023-10-31T04:11:16;12.50;99.90
20590;DHT22;10453;50.810;12.540;2023-10-31T04:15:33;12.60;99.90
20590;DHT22;10453;50.810;12.540;2023-10-31T04:19:52;12.50;99.90
20590;DHT22;10453;50.810;12.540;2023-10-31T04:24:09;12.60;99.90
20590;DHT22;10453;50.810;12.540;2023-10-31T04:28:27;12.50;99.90
20590;DHT22;10453;50.810;12.540;2023-10-31T04:32:44;12.50;99.90
20590;DHT22;10453;50.810;12.540;2023-10-31T04:37:02;12.40;99.90
20590;DHT22;10453;50.810;12.540;2023-10-31T04:41:20;12.40;99.90
20590;DHT22;10453;50.810;12.540;2023-10-31T04:45:37;12.40;99.90
20590;DHT22;10453;50.810;12.540;2023-10-31T04:49:59;12.40;99.90
20590;DHT22;10453;50.810;12.540;2023-10-31T04:54:33;12.50;99.90
20590;DHT22;10453;50.810;12.540;2023-10-31T04:58:57;12.60;99.90
20590;DHT22;10453;50.810;12.540;2023-10-31T05:03:17;12.60;99.90
20590;DHT22;10453;50.810;12.540;2023-10-31T05:07:35;12.50;99.90
20590;DHT22;10453;50.810;12.540;2023-10-31T05:11:52;12.50;99.90
20590;DHT22;10453;50.810;12.540;2023-10-31T05:16:11;12.40;99.90
20590;DHT22;10453;50.810;12.540;2023-10-31T05:20:31;12.40;99.90
20590;DHT22;10453;50.810;12.540;2023-10-31T05:24:49;12.40;99.90
20590;DHT22;10453;50.810;12.540;2023-10-31T05:29:06;12.40;99.90
20590;DHT22;10453;50.810;12.540;2023-10-31T05:33:24;12.40;99.90
20590;DHT22;10453;50.810;12.540;2023-10-31T05:37:42;12.40;99.90
20590;DHT22;10453;50.810;12.540;2023-10-31T05:42:00;12.30;99.90
20590;DHT22;10453;50.810;12.540;2023-10-31T05:46:17;12.40;99.90
20590;DHT22;10453;50.810;12.540;2023-10-31T05:50:35;12.30;99.90
20590;DHT22;10453;50.810;12.540;2023-10-31T05:54:52;12.20;99.90
20590;DHT22;10453;50.810;12.540;2023-10-31T05:59:10;12.30;99.90
20590;DHT22;10453;50.810;12.540;2023-10-31T06:03:28;12.20;99.90
20590;DHT22;10453;50.810;12.540;2023-10-31T06:07:46;12.20;99.90
20590;DHT22;10453;50.810;12.540;2023-10-31T06:12:04;12.30;99.90
20590;DHT22;10453;50.810;12.540;2023-10-31T06:16:23;12.30;99.90
20590;DHT22;10453;50.810;12.540;2023-10-31T06:20:40;12.40;99.90
20590;DHT22;10453;50.810;12.540;2023-10-31T06:24:57;12.40;99.90
20590;DHT22;10453;50.810;12.540;2023-10-31T06:29:15;12.40;99.90
20590;DHT22;10453;50.810;12.540;2023-10-31T06:33:53;12.40;99.90
20590;DHT22;10453;50.810;12.540;2023-10-31T06:38:16;12.40;99.90
20590;DHT22;10453;50.810;12.540;2023-10-31T06:42:35;12.40;99.90
20590;DHT22;10453;50.810;12.540;2023-10-31T06:46:53;12.30;99.90
20590;DHT22;10453;50.810;12.540;2023-10-31T06:51:11;12.30;99.90
20590;DHT22;10453;50.810;12.540;2023-10-31T06:55:29;12.30;99.90
20590;DHT22;10453;50.810;12.540;2023-10-31T06:59:46;12.30;99.90
20590;DHT22;10453;50.810;12.540;2023-10-31T07:04:04;12.30;99.90
20590;DHT22;10453;50.810;12.540;2023-10-31T07:08:22;12.30;99.90
20590;DHT22;10453;50.810;12.540;2023-10-31T07:12:41;12.30;99.90
20590;DHT22;10453;50.810;12.540;2023-10-31T07:16:58;12.40;99.90
20590;DHT22;10453;50.810;12.540;2023-10-31T07:21:16;12.40;99.90
20590;DHT22;10453;50.810;12.540;2023-10-31T07:25:33;12.40;99.90
20590;DHT22;10453;50.810;12.540;2023-10-31T07:29:51;12.30;99.90
20590;DHT22;10453;50.810;12.540;2023-10-31T07:34:08;12.20;99.90
20590;DHT22;10453;50.810;12.540;2023-10-31T07:38:28;12.10;99.90
20590;DHT22;10453;50.810;12.540;2023-10-31T07:42:45;12.00;99.90
20590;DHT22;10453;50.810;12.540;2023-10-31T07:47:02;11.90;99.90
20590;DHT22;10453;50.810;12.540;2023-10-31T07:51:20;11.80;99.90
20590;DHT22;10453;50.810;12.540;2023-10-31T07:55:37;11.80;99.90
20590;DHT22;10453;50.810;12.540;2023-10-31T07:59:55;11.70;99.90
20590;DHT22;10453;50.810;12.540;2023-10-31T08:04:12;11.70;99.90
20590;DHT22;10453;50.810;12.540;2023-10-31T08:08:32;11.60;99.90
20590;DHT22;10453;50.810;12.540;2023-10-31T08:12:56;11.40;99.90
20590;DHT22;10453;50.810;12.540;2023-10-31T08:17:13;11.30;99.90
20590;DHT22;10453;50.810;12.540;2023-10-31T08:21:31;11.30;99.90
20590;DHT22;10453;50.810;12.540;2023-10-31T08:25:53;11.40;99.90
20590;DHT22;10453;50.810;12.540;2023-10-31T08:30:11;11.50;99.90
20590;DHT22;10453;50.810;12.540;2023-10-31T08:34:28;11.60;99.90
20590;DHT22;10453;50.810;12.540;2023-10-31T08:38:45;11.50;99.90
20590;DHT22;10453;50.810;12.540;2023-10-31T08:43:04;11.50;99.90
20590;DHT22;10453;50.810;12.540;2023-10-31T08:47:23;11.60;99.90
20590;DHT22;10453;50.810;12.540;2023-10-31T08:51:41;12.10;99.90
20590;DHT22;10453;50.810;12.540;2023-10-31T08:55:58;12.50;99.90
20590;DHT22;10453;50.810;12.540;2023-10-31T09:00:16;12.90;99.90
20590;DHT22;10453;50.810;12.540;2023-10-31T09:04:34;13.00;99.90
20590;DHT22;10453;50.810;12.540;2023-10-31T09:08:52;13.10;99.90
20590;DHT22;10453;50.810;12.540;2023-10-31T09:13:09;13.20;99.90
20590;DHT22;10453;50.810;12.540;2023-10-31T09:17:28;13.30;99.90
20590;DHT22;10453;50.810;12.540;2023-10-31T09:21:46;13.40;99.90
20590;DHT22;10453;50.810;12.540;2023-10-31T09:26:03;13.30;99.90
20590;DHT22;10453;50.810;12.540;2023-10-31T09:30:21;13.20;99.90
20590;DHT22;10453;50.810;12.540;2023-10-31T09:34:38;13.00;99.90
20590;DHT22;10453;50.810;12.540;2023-10-31T09:38:56;13.10;99.90
20590;DHT22;10453;50.810;12.540;2023-10-31T09:43:13;13.10;99.90
20590;DHT22;10453;50.810;12.540;2023-10-31T09:47:31;13.40;99.90
20590;DHT22;10453;50.810;12.540;2023-10-31T09:51:49;13.50;99.90
20590;DHT22;10453;50.810;12.540;2023-10-31T09:56:08;13.30;99.90
20590;DHT22;10453;50.810;12.540;2023-10-31T10:00:26;13.20;99.90
20590;DHT22;10453;50.810;12.540;2023-10-31T10:04:44;13.10;99.90
20590;DHT22;10453;50.810;12.540;2023-10-31T10:09:01;13.20;99.90
20590;DHT22;10453;50.810;12.540;2023-10-31T10:13:25;13.20;99.90
20590;DHT22;10453;50.810;12.540;2023-10-31T10:17:49;13.20;99.90
20590;DHT22;10453;50.810;12.540;2023-10-31T10:22:08;13.10;99.90
20590;DHT22;10453;50.810;12.540;2023-10-31T10:26:27;13.10;99.90
20590;DHT22;10453;50.810;12.540;2023-10-31T10:30:45;13.90;99.90
20590;DHT22;10453;50.810;12.540;2023-10-31T10:35:04;14.80;99.90
20590;DHT22;10453;50.810;12.540;2023-10-31T10:39:23;14.60;99.90
20590;DHT22;10453;50.810;12.540;2023-10-31T10:43:40;14.40;99.90
20590;DHT22;10453;50.810;12.540;2023-10-31T10:48:02;14.50;99.90
20590;DHT22;10453;50.810;12.540;2023-10-31T11:01:46;14.50;99.90
20590;DHT22;10453;50.810;12.540;2023-10-31T11:06:06;13.90;99.90
20590;DHT22;10453;50.810;12.540;2023-10-31T11:10:24;13.80;99.90
20590;DHT22;10453;50.810;12.540;2023-10-31T11:14:42;13.90;99.90
20590;DHT22;10453;50.810;12.540;2023-10-31T11:19:00;13.60;99.90
20590;DHT22;10453;50.810;12.540;2023-10-31T11:23:17;13.70;99.90
20590;DHT22;10453;50.810;12.540;2023-10-31T11:27:35;13.70;99.90
20590;DHT22;10453;50.810;12.540;2023-10-31T11:31:59;13.80;99.90
20590;DHT22;10453;50.810;12.540;2023-10-31T11:36:22;14.10;99.90
20590;DHT22;10453;50.810;12.540;2023-10-31T11:45:02;14.60;99.90
20590;DHT22;10453;50.810;12.540;2023-10-31T11:49:46;13.90;99.90
20590;DHT22;10453;50.810;12.540;2023-10-31T11:54:05;13.50;99.90
20590;DHT22;10453;50.810;12.540;2023-10-31T11:58:25;13.30;99.90
20590;DHT22;10453;50.810;12.540;2023-10-31T12:02:59;13.20;99.90
20590;DHT22;10453;50.810;12.540;2023-10-31T12:07:19;13.20;99.90
20590;DHT22;10453;50.810;12.540;2023-10-31T12:11:46;13.10;99.90
20590;DHT22;10453;50.810;12.540;2023-10-31T12:16:06;13.10;99.90
20590;DHT22;10453;50.810;12.540;2023-10-31T12:20:25;13.20;99.90
20590;DHT22;10453;50.810;12.540;2023-10-31T12:24:42;13.40;99.90
20590;DHT22;10453;50.810;12.540;2023-10-31T12:29:26;13.50;99.90
20590;DHT22;10453;50.810;12.540;2023-10-31T12:33:44;13.40;99.90
20590;DHT22;10453;50.810;12.540;2023-10-31T12:38:01;13.40;99.90
20590;DHT22;10453;50.810;12.540;2023-10-31T12:42:19;13.80;99.90
20590;DHT22;10453;50.810;12.540;2023-10-31T12:46:41;13.90;99.90
20590;DHT22;10453;50.810;12.540;2023-10-31T12:51:07;13.50;99.90
20590;DHT22;10453;50.810;12.540;2023-10-31T12:55:37;13.50;99.90
20590;DHT22;10453;50.810;12.540;2023-10-31T13:00:03;13.40;99.90
20590;DHT22;10453;50.810;12.540;2023-10-31T13:04:28;13.10;99.90
20590;DHT22;10453;50.810;12.540;2023-10-31T13:08:47;13.10;99.90
20590;DHT22;10453;50.810;12.540;2023-10-31T13:13:05;12.80;99.90
20590;DHT22;10453;50.810;12.540;2023-10-31T13:17:22;12.70;99.90
20590;DHT22;10453;50.810;12.540;2023-10-31T13:21:40;12.80;99.90
20590;DHT22;10453;50.810;12.540;2023-10-31T13:25:59;12.90;99.90
20590;DHT22;10453;50.810;12.540;2023-10-31T13:30:17;13.00;99.90
20590;DHT22;10453;50.810;12.540;2023-10-31T13:34:38;13.00;99.90
20590;DHT22;10453;50.810;12.540;2023-10-31T13:38:55;13.00;99.90
20590;DHT22;10453;50.810;12.540;2023-10-31T13:43:13;13.10;99.90
20590;DHT22;10453;50.810;12.540;2023-10-31T13:47:31;12.90;99.90
20590;DHT22;10453;50.810;12.540;2023-10-31T13:51:51;12.80;99.90
20590;DHT22;10453;50.810;12.540;2023-10-31T13:56:08;12.90;99.90
20590;DHT22;10453;50.810;12.540;2023-10-31T14:00:26;12.90;99.90
20590;DHT22;10453;50.810;12.540;2023-10-31T14:04:43;12.70;99.90
20590;DHT22;10453;50.810;12.540;2023-10-31T14:09:01;12.70;99.90
20590;DHT22;10453;50.810;12.540;2023-10-31T14:13:24;12.70;99.90
20590;DHT22;10453;50.810;12.540;2023-10-31T14:17:41;12.70;99.90
20590;DHT22;10453;50.810;12.540;2023-10-31T14:21:58;12.70;99.90
20590;DHT22;10453;50.810;12.540;2023-10-31T14:26:16;12.60;99.90
20590;DHT22;10453;50.810;12.540;2023-10-31T14:30:34;12.70;99.90
20590;DHT22;10453;50.810;12.540;2023-10-31T14:34:51;12.70;99.90
20590;DHT22;10453;50.810;12.540;2023-10-31T14:39:09;12.60;99.90
20590;DHT22;10453;50.810;12.540;2023-10-31T14:43:27;12.60;99.90
20590;DHT22;10453;50.810;12.540;2023-10-31T14:47:44;12.60;99.90
20590;DHT22;10453;50.810;12.540;2023-10-31T14:52:05;12.60;99.90
20590;DHT22;10453;50.810;12.540;2023-10-31T14:56:26;12.50;99.90
20590;DHT22;10453;50.810;12.540;2023-10-31T15:00:44;12.20;99.90
20590;DHT22;10453;50.810;12.540;2023-10-31T15:05:01;12.00;99.90
20590;DHT22;10453;50.810;12.540;2023-10-31T15:09:23;11.90;99.90
20590;DHT22;10453;50.810;12.540;2023-10-31T15:13:44;11.80;99.90
20590;DHT22;10453;50.810;12.540;2023-10-31T15:18:01;11.70;99.90
20590;DHT22;10453;50.810;12.540;2023-10-31T15:22:19;11.60;99.90
20590;DHT22;10453;50.810;12.540;2023-10-31T15:26:37;11.50;99.90
20590;DHT22;10453;50.810;12.540;2023-10-31T15:30:57;11.50;99.90
20590;DHT22;10453;50.810;12.540;2023-10-31T15:35:14;11.50;99.90
20590;DHT22;10453;50.810;12.540;2023-10-31T15:39:32;11.40;99.90
20590;DHT22;10453;50.810;12.540;2023-10-31T15:43:50;11.40;99.90
20590;DHT22;10453;50.810;12.540;2023-10-31T15:48:10;11.40;99.90
20590;DHT22;10453;50.810;12.540;2023-10-31T15:52:27;11.30;99.90
20590;DHT22;10453;50.810;12.540;2023-10-31T15:56:45;11.40;99.90
20590;DHT22;10453;50.810;12.540;2023-10-31T16:01:03;11.40;99.90
20590;DHT22;10453;50.810;12.540;2023-10-31T16:05:23;11.30;99.90
20590;DHT22;10453;50.810;12.540;2023-10-31T16:09:41;11.30;99.90
20590;DHT22;10453;50.810;12.540;2023-10-31T16:13:59;11.20;99.90
20590;DHT22;10453;50.810;12.540;2023-10-31T16:18:16;11.20;99.90
20590;DHT22;10453;50.810;12.540;2023-10-31T16:22:34;11.20;99.90
20590;DHT22;10453;50.810;12.540;2023-10-31T16:26:51;11.20;99.90
20590;DHT22;10453;50.810;12.540;2023-10-31T16:31:09;11.20;99.90
20590;DHT22;10453;50.810;12.540;2023-10-31T16:35:29;11.20;99.90
20590;DHT22;10453;50.810;12.540;2023-10-31T16:39:47;11.30;99.90
20590;DHT22;10453;50.810;12.540;2023-10-31T16:44:04;11.30;99.90
20590;DHT22;10453;50.810;12.540;2023-10-31T16:48:23;11.40;99.90
20590;DHT22;10453;50.810;12.540;2023-10-31T16:52:40;11.40;99.90
20590;DHT22;10453;50.810;12.540;2023-10-31T16:56:58;11.40;99.90
20590;DHT22;10453;50.810;12.540;2023-10-31T17:01:16;11.30;99.90
20590;DHT22;10453;50.810;12.540;2023-10-31T17:05:34;11.20;99.90
20590;DHT22;10453;50.810;12.540;2023-10-31T17:09:52;11.20;99.90
20590;DHT22;10453;50.810;12.540;2023-10-31T17:14:09;11.30;99.90
20590;DHT22;10453;50.810;12.540;2023-10-31T17:18:27;11.20;99.90
20590;DHT22;10453;50.810;12.540;2023-10-31T17:22:44;11.30;99.90
20590;DHT22;10453;50.810;12.540;2023-10-31T17:27:02;11.30;99.90
20590;DHT22;10453;50.810;12.540;2023-10-31T17:31:19;11.30;99.90
20590;DHT22;10453;50.810;12.540;2023-10-31T17:35:38;11.30;99.90
20590;DHT22;10453;50.810;12.540;2023-10-31T17:39:56;11.40;99.90
20590;DHT22;10453;50.810;12.540;2023-10-31T17:44:13;11.40;99.90
20590;DHT22;10453;50.810;12.540;2023-10-31T17:48:33;11.40;99.90
20590;DHT22;10453;50.810;12.540;2023-10-31T17:52:51;11.40;99.90
20590;DHT22;10453;50.810;12.540;2023-10-31T17:57:08;11.40;99.90
20590;DHT22;10453;50.810;12.540;2023-10-31T18:01:26;11.50;99.90
20590;DHT22;10453;50.810;12.540;2023-10-31T18:05:43;11.40;99.90
20590;DHT22;10453;50.810;12.540;2023-10-31T18:10:07;11.40;99.90
20590;DHT22;10453;50.810;12.540;2023-10-31T18:14:25;11.20;99.90
20590;DHT22;10453;50.810;12.540;2023-10-31T18:18:44;11.20;99.90
20590;DHT22;10453;50.810;12.540;2023-10-31T18:23:09;11.20;99.90
20590;DHT22;10453;50.810;12.540;2023-10-31T18:27:37;11.20;99.90
20590;DHT22;10453;50.810;12.540;2023-10-31T18:31:57;11.30;99.90
20590;DHT22;10453;50.810;12.540;2023-10-31T18:36:17;11.30;99.90
20590;DHT22;10453;50.810;12.540;2023-10-31T18:40:49;11.30;99.90
20590;DHT22;10453;50.810;12.540;2023-10-31T18:45:07;11.20;99.90
20590;DHT22;10453;50.810;12.540;2023-10-31T18:49:28;11.20;99.90
20590;DHT22;10453;50.810;12.540;2023-10-31T18:53:45;11.20;99.90
20590;DHT22;10453;50.810;12.540;2023-10-31T18:58:05;11.20;99.90
20590;DHT22;10453;50.810;12.540;2023-10-31T19:02:29;11.20;99.90
20590;DHT22;10453;50.810;12.540;2023-10-31T19:06:47;11.20;99.90
20590;DHT22;10453;50.810;12.540;2023-10-31T19:11:04;11.20;99.90
20590;DHT22;10453;50.810;12.540;2023-10-31T19:15:23;11.20;99.90
20590;DHT22;10453;50.810;12.540;2023-10-31T19:19:40;11.20;99.90
20590;DHT22;10453;50.810;12.540;2023-10-31T19:24:00;11.10;99.90
20590;DHT22;10453;50.810;12.540;2023-10-31T19:28:21;11.10;99.90
20590;DHT22;10453;50.810;12.540;2023-10-31T19:32:40;11.10;99.90
20590;DHT22;10453;50.810;12.540;2023-10-31T19:36:59;11.10;99.90
20590;DHT22;10453;50.810;12.540;2023-10-31T19:41:16;11.10;99.90
20590;DHT22;10453;50.810;12.540;2023-10-31T19:45:34;11.10;99.90
20590;DHT22;10453;50.810;12.540;2023-10-31T19:49:56;11.10;99.90
20590;DHT22;10453;50.810;12.540;2023-10-31T19:54:14;11.00;99.90
20590;DHT22;10453;50.810;12.540;2023-10-31T19:58:38;11.00;99.90
20590;DHT22;10453;50.810;12.540;2023-10-31T20:03:01;11.00;99.90
20590;DHT22;10453;50.810;12.540;2023-10-31T20:07:49;11.00;99.90
20590;DHT22;10453;50.810;12.540;2023-10-31T20:12:08;11.00;99.90
20590;DHT22;10453;50.810;12.540;2023-10-31T20:16:38;11.00;99.90
20590;DHT22;10453;50.810;12.540;2023-10-31T20:20:59;11.00;99.90
20590;DHT22;10453;50.810;12.540;2023-10-31T20:25:17;10.90;99.90
20590;DHT22;10453;50.810;12.540;2023-10-31T20:29:36;10.90;99.90
20590;DHT22;10453;50.810;12.540;2023-10-31T20:33:53;10.90;99.90
20590;DHT22;10453;50.810;12.540;2023-10-31T20:38:11;10.80;99.90
20590;DHT22;10453;50.810;12.540;2023-10-31T20:42:28;10.80;99.90
20590;DHT22;10453;50.810;12.540;2023-10-31T20:46:47;10.80;99.90
20590;DHT22;10453;50.810;12.540;2023-10-31T20:51:06;10.90;99.90
20590;DHT22;10453;50.810;12.540;2023-10-31T20:55:23;10.80;99.90
20590;DHT22;10453;50.810;12.540;2023-10-31T20:59:45;10.80;99.90
20590;DHT22;10453;50.810;12.540;2023-10-31T21:04:03;10.80;99.90
20590;DHT22;10453;50.810;12.540;2023-10-31T21:08:23;10.80;99.90
20590;DHT22;10453;50.810;12.540;2023-10-31T21:12:41;10.90;99.90
20590;DHT22;10453;50.810;12.540;2023-10-31T21:17:00;10.80;99.90
20590;DHT22;10453;50.810;12.540;2023-10-31T21:21:18;10.60;99.90
20590;DHT22;10453;50.810;12.540;2023-10-31T21:25:35;10.40;99.90
20590;DHT22;10453;50.810;12.540;2023-10-31T21:29:53;10.20;99.90
20590;DHT22;10453;50.810;12.540;2023-10-31T21:34:14;10.10;99.90
20590;DHT22;10453;50.810;12.540;2023-10-31T21:38:33;10.10;99.90
20590;DHT22;10453;50.810;12.540;2023-10-31T21:42:51;10.00;99.90
20590;DHT22;10453;50.810;12.540;2023-10-31T21:47:09;9.90;99.90
20590;DHT22;10453;50.810;12.540;2023-10-31T21:51:26;9.80;99.90
20590;DHT22;10453;50.810;12.540;2023-10-31T21:55:43;9.70;99.90
20590;DHT22;10453;50.810;12.540;2023-10-31T22:00:03;9.80;99.90
20590;DHT22;10453;50.810;12.540;2023-10-31T22:04:22;9.80;99.90
20590;DHT22;10453;50.810;12.540;2023-10-31T22:08:40;9.80;99.90
20590;DHT22;10453;50.810;12.540;2023-10-31T22:12:59;9.70;99.90
20590;DHT22;10453;50.810;12.540;2023-10-31T22:17:16;9.70;99.90
20590;DHT22;10453;50.810;12.540;2023-10-31T22:21:34;9.70;99.90
20590;DHT22;10453;50.810;12.540;2023-10-31T22:25:52;9.70;99.90
20590;DHT22;10453;50.810;12.540;2023-10-31T22:30:10;9.60;99.90
20590;DHT22;10453;50.810;12.540;2023-10-31T22:34:28;9.60;99.90
20590;DHT22;10453;50.810;12.540;2023-10-31T22:38:46;9.50;99.90
20590;DHT22;10453;50.810;12.540;2023-10-31T22:43:03;9.40;99.90
20590;DHT22;10453;50.810;12.540;2023-10-31T22:47:20;9.40;99.90
20590;DHT22;10453;50.810;12.540;2023-10-31T22:51:38;9.50;99.90
20590;DHT22;10453;50.810;12.540;2023-10-31T22:55:57;9.30;99.90
20590;DHT22;10453;50.810;12.540;2023-10-31T23:00:15;9.50;99.90
20590;DHT22;10453;50.810;12.540;2023-10-31T23:04:43;9.80;99.90
20590;DHT22;10453;50.810;12.540;2023-10-31T23:09:01;9.90;99.90
20590;DHT22;10453;50.810;12.540;2023-10-31T23:13:28;10.00;99.90
20590;DHT22;10453;50.810;12.540;2023-10-31T23:17:46;10.10;99.90
20590;DHT22;10453;50.810;12.540;2023-10-31T23:22:04;10.30;99.90
20590;DHT22;10453;50.810;12.540;2023-10-31T23:26:22;10.30;99.90
20590;DHT22;10453;50.810;12.540;2023-10-31T23:30:39;10.40;99.90
20590;DHT22;10453;50.810;12.540;2023-10-31T23:35:08;10.50;99.90
20590;DHT22;10453;50.810;12.540;2023-10-31T23:39:26;10.60;99.90
20590;DHT22;10453;50.810;12.540;2023-10-31T23:43:43;10.60;99.90
20590;DHT22;10453;50.810;12.540;2023-10-31T23:48:00;10.60;99.90
20590;DHT22;10453;50.810;12.540;2023-10-31T23:52:18;10.70;99.90
20590;DHT22;10453;50.810;12.540;2023-10-31T23:56:35;10.70;99.90
